createdAt,value
2018-09-28T00:00:54.170Z,98.79
2018-09-28T00:01:54.162Z,98.13
2018-09-28T00:02:54.155Z,97.36
2018-09-28T00:03:54.161Z,97.08
2018-09-28T00:04:54.150Z,97.56
2018-09-28T00:05:54.146Z,97.46
2018-09-28T00:06:54.140Z,96.89
2018-09-28T00:07:54.134Z,96.12
2018-09-28T00:08:54.125Z,95.36
2018-09-28T00:09:54.123Z,96.41
2018-09-28T00:10:54.117Z,94.70
2018-09-28T00:11:54.111Z,95.27
2018-09-28T00:12:54.112Z,93.74
2018-09-28T00:13:54.110Z,94.03
2018-09-28T00:14:54.100Z,93.74
2018-09-28T00:15:54.095Z,93.74
2018-09-28T00:16:54.095Z,93.17
2018-09-28T00:17:54.086Z,93.93
2018-09-28T00:18:54.085Z,93.74
2018-09-28T00:19:54.078Z,93.65
2018-09-28T00:20:54.088Z,92.41
2018-09-28T00:21:54.063Z,91.65
2018-09-28T00:22:54.063Z,92.22
2018-09-28T00:23:54.057Z,92.79
2018-09-28T00:24:54.044Z,91.65
2018-09-28T00:25:54.051Z,91.74
2018-09-28T00:26:54.042Z,90.98
2018-09-28T00:27:54.031Z,91.84
2018-09-28T00:28:54.034Z,90.75
2018-09-28T00:29:54.022Z,91.22
2018-09-28T00:30:54.084Z,89.70
2018-09-28T00:31:54.018Z,88.98
2018-09-28T00:32:54.011Z,88.27
2018-09-28T00:33:54.007Z,87.74
2018-09-28T00:34:53.997Z,87.60
2018-09-28T00:35:54.014Z,87.65
2018-09-28T00:36:54.003Z,87.74
2018-09-28T00:37:53.982Z,88.22
2018-09-28T00:38:53.983Z,88.98
2018-09-28T00:39:53.983Z,89.65
2018-09-28T00:40:53.974Z,90.03
2018-09-28T00:41:53.962Z,89.75
2018-09-28T00:42:53.959Z,89.65
2018-09-28T00:43:53.959Z,89.07
2018-09-28T00:44:53.953Z,88.89
2018-09-28T00:45:53.943Z,87.36
2018-09-28T00:46:53.943Z,86.51
2018-09-28T00:47:53.936Z,86.79
2018-09-28T00:48:53.930Z,87.55
2018-09-28T00:49:53.922Z,87.84
2018-09-28T00:50:53.921Z,87.74
2018-09-28T00:51:53.906Z,88.41
2018-09-28T00:52:53.909Z,88.89
2018-09-28T00:53:53.902Z,89.26
2018-09-28T00:54:53.899Z,90.12
2018-09-28T00:55:53.895Z,89.84
2018-09-28T00:56:53.887Z,88.89
2018-09-28T00:57:53.890Z,89.26
2018-09-28T00:58:53.880Z,89.65
2018-09-28T00:59:53.876Z,89.17
2018-09-28T01:00:53.869Z,89.94
2018-09-28T01:01:53.881Z,91.08
2018-09-28T01:02:53.863Z,91.08
2018-09-28T01:03:53.856Z,90.98
2018-09-28T01:04:53.853Z,91.46
2018-09-28T01:05:53.849Z,91.84
2018-09-28T01:06:53.888Z,93.37
2018-09-28T01:07:53.839Z,92.98
2018-09-28T01:08:53.833Z,93.46
2018-09-28T01:09:53.823Z,94.32
2018-09-28T01:10:53.830Z,93.84
2018-09-28T01:11:53.820Z,93.46
2018-09-28T01:12:53.848Z,91.94
2018-09-28T01:13:53.800Z,92.89
2018-09-28T01:14:53.793Z,91.94
2018-09-28T01:15:53.798Z,91.74
2018-09-28T01:16:53.786Z,91.99
2018-09-28T01:17:53.784Z,89.79
2018-09-28T01:18:53.777Z,88.93
2018-09-28T01:19:53.774Z,88.27
2018-09-28T01:20:53.768Z,86.27
2018-09-28T01:21:53.759Z,84.84
2018-09-28T01:22:53.761Z,83.70
2018-09-28T01:23:53.757Z,83.61
2018-09-28T01:24:53.754Z,83.32
2018-09-28T01:25:53.739Z,82.65
2018-09-28T01:26:53.738Z,81.89
2018-09-28T01:27:53.730Z,82.75
2018-09-28T01:28:53.729Z,82.31
2018-09-28T02:05:52.840Z,63.42
2018-09-28T02:06:52.812Z,62.08
2018-09-28T02:08:45.692Z,58.84
2018-09-28T02:09:45.682Z,57.89
2018-09-28T02:11:38.590Z,55.80
2018-09-28T02:12:38.651Z,55.13
2018-09-28T02:14:31.501Z,54.85
2018-09-28T02:15:31.474Z,55.13
2018-09-28T02:17:24.386Z,54.85
2018-09-28T02:18:24.384Z,53.61
2018-09-28T02:20:17.317Z,50.75
2018-09-28T02:21:17.289Z,48.66
2018-09-28T02:23:10.194Z,46.18
2018-09-28T02:24:10.183Z,45.14
2018-09-28T02:25:10.182Z,44.18
2018-09-28T02:26:10.172Z,42.85
2018-09-28T02:27:10.163Z,42.66
2018-09-28T02:28:10.166Z,41.99
2018-09-28T02:29:10.153Z,40.85
2018-09-28T02:30:10.148Z,40.66
2018-09-28T02:31:10.145Z,40.18
2018-09-28T02:32:10.138Z,39.51
2018-09-28T02:33:10.122Z,39.14
2018-09-28T02:34:10.124Z,38.75
2018-09-28T02:35:10.120Z,38.56
2018-09-28T02:36:10.118Z,38.18
2018-09-28T02:37:10.118Z,38.28
2018-09-28T02:38:10.110Z,38.47
2018-09-28T02:39:10.098Z,37.80
2018-09-28T02:40:10.092Z,37.71
2018-09-28T02:41:10.093Z,37.42
2018-09-28T02:42:10.081Z,37.32
2018-09-28T02:43:10.081Z,36.85
2018-09-28T02:44:10.072Z,36.47
2018-09-28T02:45:10.070Z,36.76
2018-09-28T02:46:10.062Z,37.04
2018-09-28T02:47:10.054Z,36.66
2018-09-28T02:48:10.056Z,36.18
2018-09-28T02:49:10.042Z,35.71
2018-09-28T02:50:10.111Z,35.23
2018-09-28T02:51:10.039Z,34.85
2018-09-28T02:52:10.030Z,34.85
2018-09-28T02:53:10.063Z,34.47
2018-09-28T02:54:10.019Z,34.38
2018-09-28T02:55:10.015Z,33.23
2018-09-28T02:56:10.010Z,33.14
2018-09-28T02:57:10.021Z,32.58
2018-09-28T02:58:10.012Z,31.53
2018-09-28T02:59:09.997Z,31.15
2018-09-28T03:00:09.993Z,30.49
2018-09-28T03:01:09.985Z,29.91
2018-09-28T03:02:09.985Z,30.10
2018-09-28T03:03:09.974Z,29.53
2018-09-28T03:04:09.963Z,29.44
2018-09-28T03:05:09.967Z,29.15
2018-09-28T03:06:10.008Z,29.25
2018-09-28T03:07:09.962Z,29.53
2018-09-28T03:08:09.952Z,29.72
2018-09-28T03:09:09.949Z,29.72
2018-09-28T03:10:09.945Z,29.15
2018-09-28T03:11:09.933Z,29.34
2018-09-28T03:12:09.928Z,29.53
2018-09-28T03:13:09.936Z,29.71
2018-09-28T03:14:09.926Z,29.72
2018-09-28T03:15:09.914Z,29.91
2018-09-28T03:16:09.917Z,29.63
2018-09-28T03:17:09.904Z,29.63
2018-09-28T03:18:09.907Z,29.72
2018-09-28T03:19:09.895Z,29.82
2018-09-28T03:20:09.895Z,29.99
2018-09-28T03:21:09.888Z,30.09
2018-09-28T03:22:09.884Z,30.29
2018-09-28T03:23:09.878Z,30.10
2018-09-28T03:24:09.880Z,30.29
2018-09-28T03:25:09.872Z,30.47
2018-09-28T03:26:09.861Z,30.66
2018-09-28T03:27:09.867Z,30.94
2018-09-28T03:28:09.854Z,30.94
2018-09-28T03:29:09.851Z,30.76
2018-09-28T03:30:09.847Z,30.94
2018-09-28T03:31:09.843Z,31.24
2018-09-28T03:32:09.842Z,31.23
2018-09-28T03:33:09.825Z,31.32
2018-09-28T03:34:09.825Z,31.42
2018-09-28T03:35:09.829Z,31.61
2018-09-28T03:36:09.812Z,31.90
2018-09-28T03:37:09.808Z,31.71
2018-09-28T03:38:09.804Z,32.09
2018-09-28T03:39:09.804Z,31.99
2018-09-28T03:40:09.798Z,31.90
2018-09-28T03:41:09.787Z,31.90
2018-09-28T03:42:09.786Z,32.18
2018-09-28T03:43:09.777Z,31.80
2018-09-28T03:44:09.774Z,32.37
2018-09-28T03:45:09.770Z,32.66
2018-09-28T03:46:09.764Z,32.47
2018-09-28T03:47:09.758Z,32.85
2018-09-28T03:48:09.750Z,33.04
2018-09-28T03:49:09.813Z,33.04
2018-09-28T03:50:09.741Z,33.14
2018-09-28T03:51:09.740Z,33.33
2018-09-28T03:52:09.738Z,33.51
2018-09-28T03:53:09.734Z,33.51
2018-09-28T03:54:09.726Z,33.42
2018-09-28T03:55:09.722Z,33.51
2018-09-28T03:56:09.712Z,33.61
2018-09-28T03:57:09.706Z,33.51
2018-09-28T03:58:09.723Z,33.70
2018-09-28T03:59:09.701Z,33.99
2018-09-28T04:00:09.695Z,34.66
2018-09-28T04:01:09.690Z,34.28
2018-09-28T04:02:09.684Z,34.66
2018-09-28T04:03:09.679Z,34.66
2018-09-28T04:04:09.674Z,34.94
2018-09-28T04:05:09.684Z,34.94
2018-09-28T04:06:09.663Z,34.85
2018-09-28T04:07:09.661Z,34.85
2018-09-28T04:08:09.656Z,35.33
2018-09-28T04:09:09.650Z,34.85
2018-09-28T04:10:09.644Z,35.61
2018-09-28T04:11:09.637Z,35.42
2018-09-28T04:12:09.636Z,35.71
2018-09-28T04:13:09.636Z,35.80
2018-09-28T04:14:09.627Z,35.71
2018-09-28T04:15:09.635Z,35.99
2018-09-28T04:16:09.612Z,36.08
2018-09-28T04:17:09.616Z,35.99
2018-09-28T04:18:09.605Z,36.28
2018-09-28T04:19:09.596Z,36.57
2018-09-28T04:20:09.597Z,36.64
2018-09-28T04:21:09.588Z,37.12
2018-09-28T04:22:09.586Z,37.30
2018-09-28T04:23:09.585Z,37.21
2018-09-28T04:24:09.578Z,37.49
2018-09-28T04:25:09.572Z,37.59
2018-09-28T04:26:09.573Z,37.59
2018-09-28T04:27:09.560Z,37.21
2018-09-28T04:28:09.556Z,37.13
2018-09-28T04:29:09.549Z,37.32
2018-09-28T04:30:09.545Z,37.04
2018-09-28T04:31:09.536Z,36.66
2018-09-28T04:32:09.535Z,37.04
2018-09-28T04:33:09.530Z,36.57
2018-09-28T04:34:09.522Z,36.47
2018-09-28T04:35:09.521Z,36.37
2018-09-28T04:36:09.516Z,36.66
2018-09-28T04:37:09.509Z,36.57
2018-09-28T04:38:09.508Z,36.28
2018-09-28T04:39:09.498Z,36.57
2018-09-28T04:40:09.494Z,36.47
2018-09-28T04:41:09.487Z,36.37
2018-09-28T04:42:09.489Z,36.28
2018-09-28T04:43:09.484Z,37.23
2018-09-28T04:44:09.481Z,36.28
2018-09-28T04:45:09.530Z,36.57
2018-09-28T04:46:09.468Z,36.57
2018-09-28T04:47:09.460Z,36.57
2018-09-28T04:48:09.459Z,36.37
2018-09-28T04:49:09.449Z,36.66
2018-09-28T04:50:09.444Z,37.13
2018-09-28T04:51:09.730Z,36.66
2018-09-28T04:52:09.432Z,36.94
2018-09-28T04:53:09.428Z,36.94
2018-09-28T04:54:09.425Z,36.94
2018-09-28T04:55:09.424Z,36.76
2018-09-28T04:56:09.413Z,36.76
2018-09-28T04:57:09.404Z,36.66
2018-09-28T04:58:09.437Z,36.47
2018-09-28T04:59:09.395Z,36.94
2018-09-28T05:00:09.422Z,36.57
2018-09-28T05:01:09.419Z,37.04
2018-09-28T05:02:09.382Z,36.94
2018-09-28T05:03:09.376Z,36.49
2018-09-28T05:04:09.374Z,36.96
2018-09-28T05:05:09.370Z,36.76
2018-09-28T05:06:09.368Z,37.13
2018-09-28T05:07:09.360Z,37.42
2018-09-28T05:08:09.358Z,37.32
2018-09-28T05:09:09.347Z,37.80
2018-09-28T05:10:09.342Z,38.18
2018-09-28T05:11:09.340Z,38.47
2018-09-28T05:12:09.341Z,37.99
2018-09-28T05:13:09.406Z,38.28
2018-09-28T05:14:09.327Z,38.66
2018-09-28T05:15:09.318Z,38.75
2018-09-28T05:16:09.314Z,38.47
2018-09-28T05:17:09.310Z,38.85
2018-09-28T05:18:09.305Z,39.51
2018-09-28T05:19:09.295Z,39.42
2018-09-28T05:20:09.302Z,39.70
2018-09-28T05:21:09.289Z,39.70
2018-09-28T05:22:09.286Z,39.51
2018-09-28T05:23:09.273Z,39.70
2018-09-28T05:24:09.272Z,39.61
2018-09-28T05:25:09.280Z,40.18
2018-09-28T05:26:09.262Z,40.09
2018-09-28T05:27:09.261Z,40.18
2018-09-28T05:28:09.255Z,40.66
2018-09-28T05:29:09.259Z,40.37
2018-09-28T05:30:09.252Z,41.04
2018-09-28T05:31:09.345Z,40.85
2018-09-28T05:32:09.298Z,41.23
2018-09-28T05:33:09.221Z,41.23
2018-09-28T05:34:09.222Z,41.99
2018-09-28T05:35:09.229Z,41.99
2018-09-28T05:36:09.212Z,42.28
2018-09-28T05:37:09.236Z,42.77
2018-09-28T05:38:09.207Z,43.25
2018-09-28T05:39:09.199Z,43.25
2018-09-28T05:40:09.199Z,44.30
2018-09-28T05:41:09.189Z,44.78
2018-09-28T05:42:09.190Z,45.25
2018-09-28T05:43:09.177Z,46.01
2018-09-28T05:44:09.177Z,46.30
2018-09-28T05:45:09.170Z,47.34
2018-09-28T05:46:09.200Z,48.39
2018-09-28T05:47:09.158Z,49.54
2018-09-28T05:48:09.156Z,50.21
2018-09-28T05:49:09.151Z,51.82
2018-09-28T05:50:09.147Z,53.35
2018-09-28T05:51:09.143Z,54.61
2018-09-28T05:52:09.140Z,57.57
2018-09-28T05:53:09.134Z,60.24
2018-09-28T05:54:09.119Z,62.62
2018-09-28T05:55:09.119Z,64.34
2018-09-28T05:56:09.125Z,66.82
2018-09-28T05:57:09.114Z,69.20
2018-09-28T05:58:09.114Z,71.68
2018-09-28T05:59:09.104Z,73.24
2018-09-28T06:00:09.106Z,74.86
2018-09-28T06:01:09.094Z,77.72
2018-09-28T06:02:09.105Z,79.91
2018-09-28T06:03:09.089Z,80.30
2018-09-28T06:04:09.091Z,81.06
2018-09-28T06:05:09.082Z,80.87
2018-09-28T06:06:09.075Z,84.72
2018-09-28T06:07:09.068Z,86.92
2018-09-28T06:08:09.071Z,89.21
2018-09-28T06:09:09.059Z,89.59
2018-09-28T06:10:09.057Z,92.65
2018-09-28T06:11:09.050Z,94.79
2018-09-28T06:12:09.054Z,96.89
2018-09-28T06:13:09.042Z,99.99
2018-09-28T06:14:09.039Z,99.99
2018-09-28T06:15:09.041Z,99.99
2018-09-28T06:16:09.031Z,99.99
2018-09-28T06:17:09.049Z,99.99
2018-09-28T06:18:09.023Z,99.99
2018-09-28T06:19:09.019Z,99.99
2018-09-28T06:20:09.017Z,99.99
2018-09-28T06:21:09.013Z,99.99
2018-09-28T06:22:09.011Z,99.99
2018-09-28T06:23:09.006Z,99.99
2018-09-28T06:24:09.041Z,99.99
2018-09-28T06:25:09.003Z,99.99
2018-09-28T06:26:09.004Z,99.99
2018-09-28T06:27:08.995Z,99.99
2018-09-28T06:28:08.991Z,99.99
2018-09-28T06:29:08.988Z,99.99
2018-09-28T06:30:09.014Z,99.99
2018-09-28T06:31:08.984Z,99.99
2018-09-28T06:32:08.986Z,99.99
2018-09-28T06:33:08.985Z,99.99
2018-09-28T06:34:08.992Z,99.99
2018-09-28T06:35:08.974Z,99.99
2018-09-28T06:36:08.978Z,99.99
2018-09-28T06:37:08.974Z,99.99
2018-09-28T06:38:08.976Z,99.99
2018-09-28T06:39:08.967Z,99.99
2018-09-28T06:40:08.965Z,99.99
2018-09-28T06:41:08.977Z,99.99
2018-09-28T06:42:08.982Z,99.99
2018-09-28T06:43:08.974Z,99.99
2018-09-28T06:44:08.966Z,99.99
2018-09-28T06:45:08.968Z,99.99
2018-09-28T06:46:08.963Z,99.99
2018-09-28T06:47:08.964Z,99.99
2018-09-28T06:48:08.989Z,99.99
2018-09-28T06:49:08.971Z,99.99
2018-09-28T06:50:08.964Z,99.40
2018-09-28T06:51:09.004Z,98.53
2018-09-28T06:52:08.965Z,97.19
2018-09-28T06:53:08.964Z,97.19
2018-09-28T06:54:09.006Z,97.19
2018-09-28T06:55:08.969Z,97.04
2018-09-28T06:56:08.966Z,98.19
2018-09-28T06:57:08.973Z,98.19
2018-09-28T06:58:08.980Z,98.00
2018-09-28T06:59:08.973Z,98.63
2018-09-28T07:00:09.019Z,99.01
2018-09-28T07:01:08.976Z,99.58
2018-09-28T07:02:08.977Z,99.49
2018-09-28T07:03:08.978Z,99.40
2018-09-28T07:04:09.065Z,98.86
2018-09-28T07:05:08.992Z,98.48
2018-09-28T07:06:09.037Z,98.82
2018-09-28T07:07:08.988Z,99.25
2018-09-28T07:08:08.989Z,99.99
2018-09-28T07:09:08.996Z,99.99
2018-09-28T07:10:08.998Z,99.99
2018-09-28T07:11:09.004Z,99.99
2018-09-28T07:12:09.059Z,99.01
2018-09-28T07:13:08.997Z,99.25
2018-09-28T07:14:09.013Z,98.82
2018-09-28T07:15:09.016Z,97.96
2018-09-28T07:16:09.058Z,97.71
2018-09-28T07:17:09.012Z,98.82
2018-09-28T07:18:09.070Z,99.21
2018-09-28T07:19:09.022Z,96.99
2018-09-28T07:20:09.044Z,96.99
2018-09-28T07:21:09.030Z,96.08
2018-09-28T07:22:09.035Z,95.89
2018-09-28T07:23:09.063Z,95.98
2018-09-28T07:24:09.087Z,96.22
2018-09-28T07:25:09.123Z,97.09
2018-09-28T07:26:09.051Z,98.34
2018-09-28T07:27:09.054Z,97.24
2018-09-28T07:28:09.060Z,96.66
2018-09-28T07:29:09.064Z,96.17
2018-09-28T07:30:09.094Z,96.08
2018-09-28T07:31:09.074Z,96.08
2018-09-28T07:32:09.080Z,95.50
2018-09-28T07:33:09.092Z,96.51
2018-09-28T07:34:09.088Z,96.27
2018-09-28T07:35:09.092Z,95.89
2018-09-28T07:36:09.223Z,95.55
2018-09-28T07:37:09.306Z,94.68
2018-09-28T07:38:09.115Z,94.20
2018-09-28T07:39:09.117Z,91.98
2018-09-28T07:40:09.114Z,90.68
2018-09-28T07:41:09.123Z,90.78
2018-09-28T07:42:09.143Z,91.69
2018-09-28T07:43:09.136Z,90.78
2018-09-28T07:44:09.147Z,89.81
2018-09-28T07:45:09.149Z,89.17
2018-09-28T07:46:09.157Z,86.52
2018-09-28T07:47:09.159Z,85.74
2018-09-28T07:48:09.194Z,86.90
2018-09-28T07:49:09.256Z,84.97
2018-09-28T07:50:09.180Z,84.48
2018-09-28T07:51:09.183Z,84.39
2018-09-28T07:52:09.191Z,86.00
2018-09-28T07:53:09.198Z,87.05
2018-09-28T07:54:09.214Z,86.43
2018-09-28T07:55:09.213Z,86.62
2018-09-28T07:56:09.216Z,87.01
2018-09-28T07:57:09.220Z,87.60
2018-09-28T07:58:09.231Z,89.48
2018-09-28T07:59:09.237Z,89.86
2018-09-28T08:00:09.241Z,90.25
2018-09-28T08:01:09.250Z,90.20
2018-09-28T08:02:09.258Z,88.41
2018-09-28T08:03:09.265Z,88.08
2018-09-28T08:04:09.269Z,89.29
2018-09-28T08:05:09.278Z,90.68
2018-09-28T08:06:09.279Z,87.88
2018-09-28T08:07:09.291Z,86.96
2018-09-28T08:08:09.291Z,86.77
2018-09-28T08:09:09.307Z,87.30
2018-09-28T08:10:09.311Z,87.88
2018-09-28T08:11:09.313Z,89.23
2018-09-28T08:12:09.324Z,88.55
2018-09-28T08:13:09.329Z,86.96
2018-09-28T08:14:09.336Z,84.78
2018-09-28T08:15:09.342Z,83.18
2018-09-28T08:16:09.349Z,81.93
2018-09-28T08:17:09.356Z,83.58
2018-09-28T08:18:09.364Z,84.50
2018-09-28T08:19:09.387Z,84.58
2018-09-28T08:20:09.392Z,82.11
2018-09-28T08:21:09.408Z,83.39
2018-09-28T08:22:09.397Z,84.10
2018-09-28T08:23:09.409Z,82.94
2018-09-28T08:24:09.414Z,83.52
2018-09-28T08:25:09.422Z,82.98
2018-09-28T08:26:09.427Z,83.23
2018-09-28T08:27:09.431Z,83.52
2018-09-28T08:28:09.438Z,82.75
2018-09-28T08:29:09.459Z,83.81
2018-09-28T08:30:09.458Z,82.31
2018-09-28T08:31:09.465Z,81.44
2018-09-28T08:32:09.472Z,81.59
2018-09-28T08:33:09.479Z,82.31
2018-09-28T08:34:09.495Z,80.49
2018-09-28T08:35:09.498Z,77.37
2018-09-28T08:36:09.577Z,76.06
2018-09-28T08:37:09.519Z,75.02
2018-09-28T08:38:09.524Z,74.24
2018-09-28T08:39:09.534Z,74.66
2018-09-28T08:40:09.539Z,73.73
2018-09-28T08:41:09.545Z,72.47
2018-09-28T08:42:09.554Z,72.28
2018-09-28T08:43:09.564Z,72.86
2018-09-28T08:44:09.589Z,69.21
2018-09-28T08:45:09.584Z,70.86
2018-09-28T08:46:09.597Z,71.22
2018-09-28T08:47:09.603Z,70.34
2018-09-28T08:48:09.632Z,70.09
2018-09-28T08:49:09.666Z,69.79
2018-09-28T08:50:09.629Z,69.82
2018-09-28T08:51:09.640Z,71.02
2018-09-28T08:52:09.647Z,70.92
2018-09-28T08:53:09.656Z,69.99
2018-09-28T08:54:09.666Z,68.70
2018-09-28T08:55:09.679Z,67.50
2018-09-28T08:56:09.690Z,68.12
2018-09-28T08:57:09.697Z,68.08
2018-09-28T08:58:09.704Z,68.28
2018-09-28T08:59:09.711Z,67.99
2018-09-28T09:00:09.732Z,67.21
2018-09-28T09:01:09.736Z,68.24
2018-09-28T09:02:09.809Z,68.02
2018-09-28T09:03:09.768Z,67.02
2018-09-28T09:04:09.773Z,64.88
2018-09-28T09:05:09.773Z,66.40
2018-09-28T09:06:09.785Z,66.60
2018-09-28T09:07:09.790Z,66.40
2018-09-28T09:08:09.805Z,66.76
2018-09-28T09:09:09.810Z,66.17
2018-09-28T09:10:09.828Z,64.52
2018-09-28T09:11:09.832Z,61.63
2018-09-28T09:12:09.852Z,60.49
2018-09-28T09:13:09.850Z,61.54
2018-09-28T09:14:09.862Z,62.54
2018-09-28T09:15:09.869Z,62.77
2018-09-28T09:16:09.887Z,62.13
2018-09-28T09:17:09.895Z,62.23
2018-09-28T09:18:09.988Z,63.97
2018-09-28T09:19:09.915Z,63.62
2018-09-28T09:20:09.916Z,61.99
2018-09-28T09:21:09.938Z,61.47
2018-09-28T09:22:09.953Z,60.69
2018-09-28T09:23:09.958Z,60.21
2018-09-28T09:24:09.972Z,60.60
2018-09-28T09:25:09.981Z,60.34
2018-09-28T09:26:10.002Z,59.43
2018-09-28T09:27:10.027Z,61.15
2018-09-28T09:28:10.024Z,62.87
2018-09-28T09:29:10.021Z,63.39
2018-09-28T09:30:10.139Z,63.75
2018-09-28T09:31:10.047Z,63.04
2018-09-28T09:32:10.048Z,64.04
2018-09-28T09:33:10.075Z,63.26
2018-09-28T09:34:10.082Z,63.10
2018-09-28T09:35:10.091Z,62.81
2018-09-28T09:36:10.103Z,60.92
2018-09-28T09:37:10.113Z,57.70
2018-09-28T09:38:10.130Z,59.16
2018-09-28T09:39:10.164Z,59.58
2018-09-28T09:40:10.163Z,58.74
2018-09-28T09:41:10.159Z,60.23
2018-09-28T09:42:10.168Z,58.38
2018-09-28T09:43:10.173Z,58.70
2018-09-28T09:44:10.198Z,57.65
2018-09-28T09:45:10.204Z,56.35
2018-09-28T09:46:10.213Z,55.00
2018-09-28T09:47:10.225Z,55.86
2018-09-28T09:48:10.243Z,56.95
2018-09-28T09:49:10.258Z,57.73
2018-09-28T09:50:10.266Z,58.97
2018-09-28T09:51:10.281Z,57.36
2018-09-28T09:52:10.288Z,57.56
2018-09-28T09:53:10.297Z,57.85
2018-09-28T09:54:10.313Z,57.00
2018-09-28T09:55:10.339Z,57.47
2018-09-28T09:56:10.334Z,59.95
2018-09-28T09:57:10.349Z,60.00
2018-09-28T09:58:10.389Z,59.85
2018-09-28T09:59:10.371Z,59.98
2018-09-28T10:00:10.380Z,62.35
2018-09-28T10:01:10.401Z,62.06
2018-09-28T10:02:10.412Z,60.88
2018-09-28T10:03:10.421Z,58.34
2018-09-28T10:04:10.428Z,55.86
2018-09-28T10:05:10.445Z,55.47
2018-09-28T10:06:10.454Z,55.27
2018-09-28T10:07:10.466Z,56.02
2018-09-28T10:08:10.476Z,56.75
2018-09-28T10:09:10.489Z,57.64
2018-09-28T10:10:10.506Z,59.72
2018-09-28T10:11:10.514Z,57.75
2018-09-28T10:12:10.563Z,54.69
2018-09-28T10:13:10.542Z,55.30
2018-09-28T10:14:10.548Z,53.83
2018-09-28T10:15:10.567Z,53.17
2018-09-28T10:16:10.572Z,52.25
2018-09-28T10:17:10.584Z,54.83
2018-09-28T10:18:10.609Z,55.59
2018-09-28T10:19:10.659Z,53.76
2018-09-28T10:20:10.626Z,51.54
2018-09-28T10:21:10.644Z,52.37
2018-09-28T10:22:10.646Z,52.17
2018-09-28T10:23:10.663Z,53.15
2018-09-28T10:24:10.672Z,53.91
2018-09-28T10:25:10.683Z,52.71
2018-09-28T10:26:10.697Z,50.42
2018-09-28T10:27:10.752Z,51.15
2018-09-28T10:28:10.787Z,53.58
2018-09-28T10:29:10.734Z,56.10
2018-09-28T10:30:10.747Z,57.60
2018-09-28T10:31:10.768Z,57.24
2018-09-28T10:32:10.771Z,55.94
2018-09-28T10:33:10.781Z,56.67
2018-09-28T10:34:10.864Z,58.45
2018-09-28T10:35:10.812Z,56.95
2018-09-28T10:36:10.822Z,55.47
2018-09-28T10:37:10.848Z,52.69
2018-09-28T10:38:10.854Z,52.83
2018-09-28T10:39:10.915Z,54.85
2018-09-28T10:40:10.961Z,61.08
2018-09-28T10:41:10.896Z,60.77
2018-09-28T10:42:10.895Z,60.47
2018-09-28T10:43:10.919Z,62.74
2018-09-28T10:44:10.920Z,62.03
2018-09-28T10:45:10.949Z,61.22
2018-09-28T10:46:10.949Z,62.97
2018-09-28T10:47:10.961Z,62.65
2018-09-28T10:48:10.969Z,63.01
2018-09-28T10:49:10.981Z,63.68
2018-09-28T10:50:10.994Z,60.53
2018-09-28T10:51:11.013Z,60.96
2018-09-28T10:52:11.144Z,61.54
2018-09-28T10:53:11.071Z,60.54
2018-09-28T10:54:11.040Z,62.77
2018-09-28T10:55:11.051Z,59.72
2018-09-28T10:56:11.061Z,59.69
2018-09-28T10:57:11.086Z,61.38
2018-09-28T10:58:11.127Z,62.42
2018-09-28T10:59:11.098Z,63.23
2018-09-28T11:00:11.108Z,63.88
2018-09-28T11:01:11.119Z,65.05
2018-09-28T11:02:11.130Z,63.39
2018-09-28T11:03:11.152Z,62.94
2018-09-28T11:04:11.190Z,63.52
2018-09-28T11:05:11.164Z,63.75
2018-09-28T11:06:11.173Z,63.39
2018-09-28T11:07:11.182Z,63.55
2018-09-28T11:08:11.209Z,59.92
2018-09-28T11:09:11.263Z,59.83
2018-09-28T11:10:11.282Z,59.86
2018-09-28T11:11:11.229Z,59.43
2018-09-28T11:12:11.244Z,60.60
2018-09-28T11:13:11.253Z,60.11
2018-09-28T11:14:11.264Z,60.05
2018-09-28T11:15:11.339Z,61.15
2018-09-28T11:16:11.325Z,59.43
2018-09-28T11:17:11.295Z,60.05
2018-09-28T11:18:11.310Z,56.93
2018-09-28T11:19:11.313Z,56.27
2018-09-28T11:20:11.324Z,57.61
2018-09-28T11:21:11.415Z,58.69
2018-09-28T11:22:11.350Z,57.31
2018-09-28T11:23:11.364Z,56.67
2018-09-28T11:24:11.365Z,55.13
2018-09-28T11:25:11.383Z,53.38
2018-09-28T11:26:11.408Z,54.73
2018-09-28T11:27:11.420Z,53.70
2018-09-28T11:28:11.415Z,51.29
2018-09-28T11:29:11.427Z,52.89
2018-09-28T11:30:11.438Z,50.85
2018-09-28T11:31:11.452Z,53.89
2018-09-28T11:32:11.467Z,54.99
2018-09-28T11:33:11.517Z,54.79
2018-09-28T11:34:11.488Z,55.37
2018-09-28T11:35:11.491Z,55.74
2018-09-28T11:36:11.494Z,55.21
2018-09-28T11:37:11.519Z,54.11
2018-09-28T11:38:11.529Z,55.37
2018-09-28T11:39:11.553Z,57.56
2018-09-28T11:40:11.551Z,60.42
2018-09-28T11:41:11.562Z,63.72
2018-09-28T11:42:11.577Z,59.86
2018-09-28T11:43:11.616Z,57.43
2018-09-28T11:44:11.602Z,54.76
2018-09-28T11:45:11.683Z,55.64
2018-09-28T11:46:11.613Z,57.37
2018-09-28T11:47:11.624Z,59.71
2018-09-28T11:48:11.635Z,61.24
2018-09-28T11:49:11.654Z,62.07
2018-09-28T11:50:11.660Z,62.62
2018-09-28T11:51:11.713Z,59.67
2018-09-28T11:52:11.675Z,59.42
2018-09-28T11:53:11.682Z,58.48
2018-09-28T11:54:11.699Z,55.78
2018-09-28T11:55:11.702Z,56.41
2018-09-28T11:56:11.713Z,56.07
2018-09-28T11:57:11.725Z,58.48
2018-09-28T11:58:11.727Z,61.79
2018-09-28T11:59:11.740Z,63.01
2018-09-28T12:00:11.748Z,60.77
2018-09-28T12:01:11.831Z,60.35
2018-09-28T12:02:11.763Z,60.64
2018-09-28T12:03:11.791Z,59.23
2018-09-28T12:04:11.787Z,59.82
2018-09-28T12:05:11.848Z,58.00
2018-09-28T12:06:11.872Z,59.83
2018-09-28T12:07:11.841Z,58.76
2018-09-28T12:08:11.814Z,59.61
2018-09-28T12:09:11.833Z,60.13
2018-09-28T12:10:11.826Z,60.58
2018-09-28T12:11:11.836Z,61.85
2018-09-28T12:12:11.936Z,64.11
2018-09-28T12:13:11.852Z,66.37
2018-09-28T12:14:11.860Z,68.63
2018-09-28T12:15:11.867Z,66.69
2018-09-28T12:16:11.874Z,65.85
2018-09-28T12:17:11.879Z,65.27
2018-09-28T12:18:11.922Z,64.30
2018-09-28T12:19:11.891Z,63.92
2018-09-28T12:20:11.895Z,63.62
2018-09-28T12:21:11.956Z,63.69
2018-09-28T12:22:11.909Z,65.11
2018-09-28T12:23:11.915Z,65.79
2018-09-28T12:24:11.970Z,65.30
2018-09-28T12:25:11.925Z,64.59
2018-09-28T12:26:11.931Z,64.95
2018-09-28T12:27:11.960Z,68.24
2018-09-28T12:28:11.943Z,68.04
2018-09-28T12:29:11.941Z,66.01
2018-09-28T12:30:11.950Z,67.04
2018-09-28T12:31:11.950Z,68.36
2018-09-28T12:32:11.958Z,70.58
2018-09-28T12:33:11.976Z,70.00
2018-09-28T12:34:11.961Z,71.74
2018-09-28T12:35:11.966Z,71.90
2018-09-28T12:36:12.033Z,73.15
2018-09-28T12:37:11.976Z,73.06
2018-09-28T12:38:11.984Z,74.02
2018-09-28T12:39:12.044Z,72.67
2018-09-28T12:40:11.982Z,73.25
2018-09-28T12:41:11.987Z,72.19
2018-09-28T12:42:12.005Z,72.58
2018-09-28T12:43:11.989Z,73.44
2018-09-28T12:44:11.996Z,73.35
2018-09-28T12:45:12.017Z,74.41
2018-09-28T12:46:11.996Z,74.60
2018-09-28T12:47:11.998Z,72.09
2018-09-28T12:48:12.030Z,72.58
2018-09-28T12:49:12.005Z,71.70
2018-09-28T12:50:12.009Z,72.86
2018-09-28T12:51:12.007Z,72.90
2018-09-28T12:52:12.009Z,73.44
2018-09-28T12:53:12.010Z,73.19
2018-09-28T12:54:12.067Z,72.90
2018-09-28T12:55:12.015Z,73.58
2018-09-28T12:56:12.041Z,72.42
2018-09-28T12:57:12.030Z,72.96
2018-09-28T12:58:12.010Z,72.09
2018-09-28T12:59:12.020Z,73.15
2018-09-28T13:00:12.021Z,73.35
2018-09-28T13:01:12.323Z,72.06
2018-09-28T13:02:12.048Z,72.25
2018-09-28T13:03:12.023Z,73.89
2018-09-28T13:04:12.027Z,75.30
2018-09-28T13:05:12.032Z,75.78
2018-09-28T13:06:12.068Z,75.68
2018-09-28T13:07:12.035Z,77.23
2018-09-28T13:08:12.076Z,76.45
2018-09-28T13:09:12.033Z,76.75
2018-09-28T13:10:12.033Z,76.65
2018-09-28T13:11:12.039Z,75.88
2018-09-28T13:12:12.052Z,74.62
2018-09-28T13:13:12.038Z,76.80
2018-09-28T13:14:12.093Z,74.49
2018-09-28T13:15:12.176Z,74.20
2018-09-28T13:16:12.039Z,74.88
2018-09-28T13:17:12.040Z,76.42
2018-09-28T13:18:12.512Z,76.90
2018-09-28T13:19:12.043Z,77.00
2018-09-28T13:20:12.105Z,76.71
2018-09-28T13:21:12.042Z,77.00
2018-09-28T13:22:12.045Z,75.36
2018-09-28T13:23:12.041Z,75.55
2018-09-28T13:24:12.047Z,75.07
2018-09-28T13:25:12.045Z,74.88
2018-09-28T13:26:12.056Z,74.88
2018-09-28T13:27:12.045Z,76.03
2018-09-28T13:28:12.055Z,77.48
2018-09-28T13:29:12.099Z,77.86
2018-09-28T13:30:12.096Z,77.61
2018-09-28T13:31:12.045Z,77.42
2018-09-28T13:32:12.055Z,76.84
2018-09-28T13:33:12.047Z,77.61
2018-09-28T13:34:12.045Z,77.81